sensor_id;sensor_type;location;lat;lon;timestamp;temperature;humidity
7016;DHT22;3548;48.402;9.990;2023-04-06T00:01:25;0.80;99.90
7016;DHT22;3548;48.402;9.990;2023-04-06T00:03:51;0.80;99.90
7016;DHT22;3548;48.402;9.990;2023-04-06T00:06:16;0.70;99.90
7016;DHT22;3548;48.402;9.990;2023-04-06T00:08:42;0.70;99.90
7016;DHT22;3548;48.402;9.990;2023-04-06T00:11:08;0.70;99.90
7016;DHT22;3548;48.402;9.990;2023-04-06T00:13:34;0.60;99.90
7016;DHT22;3548;48.402;9.990;2023-04-06T00:16:00;0.60;99.90
7016;DHT22;3548;48.402;9.990;2023-04-06T00:18:25;0.60;99.90
7016;DHT22;3548;48.402;9.990;2023-04-06T00:20:51;0.50;99.90
7016;DHT22;3548;48.402;9.990;2023-04-06T00:23:17;0.50;99.90
7016;DHT22;3548;48.402;9.990;2023-04-06T00:25:43;0.50;99.90
7016;DHT22;3548;48.402;9.990;2023-04-06T00:28:08;0.50;99.90
7016;DHT22;3548;48.402;9.990;2023-04-06T00:30:34;0.50;99.90
7016;DHT22;3548;48.402;9.990;2023-04-06T00:32:59;0.50;99.90
7016;DHT22;3548;48.402;9.990;2023-04-06T00:35:25;0.50;99.90
7016;DHT22;3548;48.402;9.990;2023-04-06T00:37:51;0.40;99.90
7016;DHT22;3548;48.402;9.990;2023-04-06T00:40:17;0.40;99.90
7016;DHT22;3548;48.402;9.990;2023-04-06T00:42:42;0.40;99.90
7016;DHT22;3548;48.402;9.990;2023-04-06T00:45:09;0.30;99.90
7016;DHT22;3548;48.402;9.990;2023-04-06T00:47:35;0.30;99.90
7016;DHT22;3548;48.402;9.990;2023-04-06T00:50:00;0.30;99.90
7016;DHT22;3548;48.402;9.990;2023-04-06T00:52:26;0.30;99.90
7016;DHT22;3548;48.402;9.990;2023-04-06T00:54:51;0.30;99.90
7016;DHT22;3548;48.402;9.990;2023-04-06T00:57:17;0.20;99.90
7016;DHT22;3548;48.402;9.990;2023-04-06T00:59:43;0.20;99.90
7016;DHT22;3548;48.402;9.990;2023-04-06T01:02:09;0.20;99.90
7016;DHT22;3548;48.402;9.990;2023-04-06T01:04:34;0.20;99.90
7016;DHT22;3548;48.402;9.990;2023-04-06T01:07:00;0.20;99.90
7016;DHT22;3548;48.402;9.990;2023-04-06T01:09:28;0.20;99.90
7016;DHT22;3548;48.402;9.990;2023-04-06T01:11:55;0.10;99.90
7016;DHT22;3548;48.402;9.990;2023-04-06T01:14:21;0.10;99.90
7016;DHT22;3548;48.402;9.990;2023-04-06T01:16:47;0.10;99.90
7016;DHT22;3548;48.402;9.990;2023-04-06T01:19:13;0.10;99.90
7016;DHT22;3548;48.402;9.990;2023-04-06T01:21:39;0.10;99.90
7016;DHT22;3548;48.402;9.990;2023-04-06T01:24:06;0.10;99.90
7016;DHT22;3548;48.402;9.990;2023-04-06T01:26:32;0.10;99.90
7016;DHT22;3548;48.402;9.990;2023-04-06T01:28:58;0.00;99.90
7016;DHT22;3548;48.402;9.990;2023-04-06T01:31:24;0.00;99.90
7016;DHT22;3548;48.402;9.990;2023-04-06T01:33:50;0.00;99.90
7016;DHT22;3548;48.402;9.990;2023-04-06T01:36:16;-0.10;99.90
7016;DHT22;3548;48.402;9.990;2023-04-06T01:38:42;-0.10;99.90
7016;DHT22;3548;48.402;9.990;2023-04-06T01:41:08;-0.10;99.90
7016;DHT22;3548;48.402;9.990;2023-04-06T01:43:34;0.00;99.90
7016;DHT22;3548;48.402;9.990;2023-04-06T01:46:00;0.00;99.90
7016;DHT22;3548;48.402;9.990;2023-04-06T01:48:27;0.10;99.90
7016;DHT22;3548;48.402;9.990;2023-04-06T01:50:53;0.10;99.90
7016;DHT22;3548;48.402;9.990;2023-04-06T01:53:19;0.10;99.90
7016;DHT22;3548;48.402;9.990;2023-04-06T01:55:45;0.10;99.90
7016;DHT22;3548;48.402;9.990;2023-04-06T01:58:11;0.10;99.90
7016;DHT22;3548;48.402;9.990;2023-04-06T02:00:37;0.10;99.90
7016;DHT22;3548;48.402;9.990;2023-04-06T02:03:02;0.10;99.90
7016;DHT22;3548;48.402;9.990;2023-04-06T02:05:29;0.00;99.90
7016;DHT22;3548;48.402;9.990;2023-04-06T02:07:55;0.00;99.90
7016;DHT22;3548;48.402;9.990;2023-04-06T02:10:21;0.00;99.90
7016;DHT22;3548;48.402;9.990;2023-04-06T02:12:47;0.10;99.90
7016;DHT22;3548;48.402;9.990;2023-04-06T02:15:13;0.00;99.90
7016;DHT22;3548;48.402;9.990;2023-04-06T02:17:39;0.00;99.90
7016;DHT22;3548;48.402;9.990;2023-04-06T02:20:05;0.00;99.90
7016;DHT22;3548;48.402;9.990;2023-04-06T02:22:31;0.00;99.90
7016;DHT22;3548;48.402;9.990;2023-04-06T02:24:56;0.00;99.90
7016;DHT22;3548;48.402;9.990;2023-04-06T02:27:22;-0.10;99.90
7016;DHT22;3548;48.402;9.990;2023-04-06T02:29:48;0.00;99.90
7016;DHT22;3548;48.402;9.990;2023-04-06T02:32:13;-0.10;99.90
7016;DHT22;3548;48.402;9.990;2023-04-06T02:34:39;-0.10;99.90
7016;DHT22;3548;48.402;9.990;2023-04-06T02:37:05;-0.20;99.90
7016;DHT22;3548;48.402;9.990;2023-04-06T02:39:31;-0.20;99.90
7016;DHT22;3548;48.402;9.990;2023-04-06T02:41:56;-0.20;99.90
7016;DHT22;3548;48.402;9.990;2023-04-06T02:44:22;-0.20;99.90
7016;DHT22;3548;48.402;9.990;2023-04-06T02:46:48;-0.20;99.90
7016;DHT22;3548;48.402;9.990;2023-04-06T02:49:13;-0.20;99.90
7016;DHT22;3548;48.402;9.990;2023-04-06T02:51:39;-0.20;99.90
7016;DHT22;3548;48.402;9.990;2023-04-06T02:54:05;-0.20;99.90
7016;DHT22;3548;48.402;9.990;2023-04-06T02:56:30;-0.20;99.90
7016;DHT22;3548;48.402;9.990;2023-04-06T02:58:56;-0.30;99.90
7016;DHT22;3548;48.402;9.990;2023-04-06T03:01:21;-0.30;99.90
7016;DHT22;3548;48.402;9.990;2023-04-06T03:03:47;-0.40;99.90
7016;DHT22;3548;48.402;9.990;2023-04-06T03:06:13;-0.40;99.90
7016;DHT22;3548;48.402;9.990;2023-04-06T03:08:38;-0.50;99.90
7016;DHT22;3548;48.402;9.990;2023-04-06T03:11:04;-0.60;99.90
7016;DHT22;3548;48.402;9.990;2023-04-06T03:13:29;-0.60;99.90
7016;DHT22;3548;48.402;9.990;2023-04-06T03:15:55;-0.60;99.90
7016;DHT22;3548;48.402;9.990;2023-04-06T03:18:22;-0.60;99.90
7016;DHT22;3548;48.402;9.990;2023-04-06T03:20:48;-0.70;99.90
7016;DHT22;3548;48.402;9.990;2023-04-06T03:23:14;-0.70;99.90
7016;DHT22;3548;48.402;9.990;2023-04-06T03:25:39;-0.60;99.90
7016;DHT22;3548;48.402;9.990;2023-04-06T03:28:05;-0.60;99.90
7016;DHT22;3548;48.402;9.990;2023-04-06T03:30:30;-0.60;99.90
7016;DHT22;3548;48.402;9.990;2023-04-06T03:32:56;-0.60;99.90
7016;DHT22;3548;48.402;9.990;2023-04-06T03:35:21;-0.60;99.90
7016;DHT22;3548;48.402;9.990;2023-04-06T03:37:47;-0.50;99.90
7016;DHT22;3548;48.402;9.990;2023-04-06T03:40:13;-0.50;99.90
7016;DHT22;3548;48.402;9.990;2023-04-06T03:42:38;-0.60;99.90
7016;DHT22;3548;48.402;9.990;2023-04-06T03:45:04;-0.60;99.90
7016;DHT22;3548;48.402;9.990;2023-04-06T03:47:30;-0.60;99.90
7016;DHT22;3548;48.402;9.990;2023-04-06T03:49:56;-0.70;99.90
7016;DHT22;3548;48.402;9.990;2023-04-06T03:52:21;-0.70;99.90
7016;DHT22;3548;48.402;9.990;2023-04-06T03:54:48;-0.70;99.90
7016;DHT22;3548;48.402;9.990;2023-04-06T03:57:14;-0.70;99.90
7016;DHT22;3548;48.402;9.990;2023-04-06T03:59:39;-0.70;99.90
7016;DHT22;3548;48.402;9.990;2023-04-06T04:02:05;-0.80;99.90
7016;DHT22;3548;48.402;9.990;2023-04-06T04:04:31;-0.80;99.90
7016;DHT22;3548;48.402;9.990;2023-04-06T04:06:56;-0.90;99.90
7016;DHT22;3548;48.402;9.990;2023-04-06T04:09:22;-0.90;99.90
7016;DHT22;3548;48.402;9.990;2023-04-06T04:11:47;-1.00;99.90
7016;DHT22;3548;48.402;9.990;2023-04-06T04:14:13;-1.00;99.90
7016;DHT22;3548;48.402;9.990;2023-04-06T04:16:38;-1.00;99.90
7016;DHT22;3548;48.402;9.990;2023-04-06T04:19:05;-1.00;99.90
7016;DHT22;3548;48.402;9.990;2023-04-06T04:21:31;-1.00;99.90
7016;DHT22;3548;48.402;9.990;2023-04-06T04:23:57;-1.00;99.90
7016;DHT22;3548;48.402;9.990;2023-04-06T04:26:22;-1.00;99.90
7016;DHT22;3548;48.402;9.990;2023-04-06T04:28:48;-0.90;99.90
7016;DHT22;3548;48.402;9.990;2023-04-06T04:31:13;-0.90;99.90
7016;DHT22;3548;48.402;9.990;2023-04-06T04:33:39;-1.00;99.90
7016;DHT22;3548;48.402;9.990;2023-04-06T04:36:06;-1.00;99.90
7016;DHT22;3548;48.402;9.990;2023-04-06T04:38:32;-1.00;99.90
7016;DHT22;3548;48.402;9.990;2023-04-06T04:40:57;-1.00;99.90
7016;DHT22;3548;48.402;9.990;2023-04-06T04:43:23;-1.10;99.90
7016;DHT22;3548;48.402;9.990;2023-04-06T04:45:48;-1.10;99.90
7016;DHT22;3548;48.402;9.990;2023-04-06T04:48:14;-1.10;99.90
7016;DHT22;3548;48.402;9.990;2023-04-06T04:50:40;-1.10;99.90
7016;DHT22;3548;48.402;9.990;2023-04-06T04:53:06;-1.10;99.90
7016;DHT22;3548;48.402;9.990;2023-04-06T04:55:31;-1.10;99.90
7016;DHT22;3548;48.402;9.990;2023-04-06T04:57:57;-1.10;99.90
7016;DHT22;3548;48.402;9.990;2023-04-06T05:00:23;-1.10;99.90
7016;DHT22;3548;48.402;9.990;2023-04-06T05:02:49;-1.10;99.90
7016;DHT22;3548;48.402;9.990;2023-04-06T05:05:14;-1.00;99.90
7016;DHT22;3548;48.402;9.990;2023-04-06T05:07:40;-1.00;99.90
7016;DHT22;3548;48.402;9.990;2023-04-06T05:10:06;-1.00;99.90
7016;DHT22;3548;48.402;9.990;2023-04-06T05:12:31;-1.00;99.90
7016;DHT22;3548;48.402;9.990;2023-04-06T05:14:57;-1.00;99.90
7016;DHT22;3548;48.402;9.990;2023-04-06T05:17:23;-0.90;99.90
7016;DHT22;3548;48.402;9.990;2023-04-06T05:19:48;-0.80;99.90
7016;DHT22;3548;48.402;9.990;2023-04-06T05:22:14;-0.80;99.90
7016;DHT22;3548;48.402;9.990;2023-04-06T05:24:41;-0.70;99.90
7016;DHT22;3548;48.402;9.990;2023-04-06T05:27:07;-0.60;99.90
7016;DHT22;3548;48.402;9.990;2023-04-06T05:29:33;-0.60;99.90
7016;DHT22;3548;48.402;9.990;2023-04-06T05:31:58;-0.50;99.90
7016;DHT22;3548;48.402;9.990;2023-04-06T05:34:24;-0.50;99.90
7016;DHT22;3548;48.402;9.990;2023-04-06T05:36:51;-0.30;99.90
7016;DHT22;3548;48.402;9.990;2023-04-06T05:39:17;-0.20;99.90
7016;DHT22;3548;48.402;9.990;2023-04-06T05:41:42;-0.20;99.90
7016;DHT22;3548;48.402;9.990;2023-04-06T05:44:08;-0.10;99.90
7016;DHT22;3548;48.402;9.990;2023-04-06T05:46:33;0.00;99.90
7016;DHT22;3548;48.402;9.990;2023-04-06T05:48:59;0.10;99.90
7016;DHT22;3548;48.402;9.990;2023-04-06T05:51:25;0.30;99.90
7016;DHT22;3548;48.402;9.990;2023-04-06T05:53:52;0.40;99.90
7016;DHT22;3548;48.402;9.990;2023-04-06T05:56:17;0.50;99.90
7016;DHT22;3548;48.402;9.990;2023-04-06T05:58:43;0.60;99.90
7016;DHT22;3548;48.402;9.990;2023-04-06T06:01:08;0.70;99.90
7016;DHT22;3548;48.402;9.990;2023-04-06T06:03:35;0.70;99.90
7016;DHT22;3548;48.402;9.990;2023-04-06T06:06:02;0.80;99.90
7016;DHT22;3548;48.402;9.990;2023-04-06T06:08:28;0.90;99.90
7016;DHT22;3548;48.402;9.990;2023-04-06T06:10:54;1.00;99.90
7016;DHT22;3548;48.402;9.990;2023-04-06T06:13:20;1.10;99.90
7016;DHT22;3548;48.402;9.990;2023-04-06T06:15:47;1.10;99.90
7016;DHT22;3548;48.402;9.990;2023-04-06T06:18:13;1.20;99.90
7016;DHT22;3548;48.402;9.990;2023-04-06T06:20:38;1.30;99.90
7016;DHT22;3548;48.402;9.990;2023-04-06T06:23:04;1.30;99.90
7016;DHT22;3548;48.402;9.990;2023-04-06T06:25:29;1.50;99.90
7016;DHT22;3548;48.402;9.990;2023-04-06T06:27:58;1.60;99.90
7016;DHT22;3548;48.402;9.990;2023-04-06T06:30:24;1.80;99.90
7016;DHT22;3548;48.402;9.990;2023-04-06T06:32:50;1.90;99.90
7016;DHT22;3548;48.402;9.990;2023-04-06T06:35:16;2.00;99.90
7016;DHT22;3548;48.402;9.990;2023-04-06T06:37:41;2.10;99.90
7016;DHT22;3548;48.402;9.990;2023-04-06T06:40:08;2.20;99.90
7016;DHT22;3548;48.402;9.990;2023-04-06T06:42:34;2.30;99.90
7016;DHT22;3548;48.402;9.990;2023-04-06T06:44:59;2.40;99.90
7016;DHT22;3548;48.402;9.990;2023-04-06T06:47:25;2.50;99.90
7016;DHT22;3548;48.402;9.990;2023-04-06T06:49:51;2.60;99.90
7016;DHT22;3548;48.402;9.990;2023-04-06T06:52:17;2.70;99.90
7016;DHT22;3548;48.402;9.990;2023-04-06T06:54:42;2.80;99.90
7016;DHT22;3548;48.402;9.990;2023-04-06T06:57:09;2.80;99.90
7016;DHT22;3548;48.402;9.990;2023-04-06T06:59:34;2.90;99.90
7016;DHT22;3548;48.402;9.990;2023-04-06T07:02:01;3.00;99.90
7016;DHT22;3548;48.402;9.990;2023-04-06T07:04:27;3.10;99.90
7016;DHT22;3548;48.402;9.990;2023-04-06T07:06:52;3.20;99.90
7016;DHT22;3548;48.402;9.990;2023-04-06T07:09:18;3.40;99.90
7016;DHT22;3548;48.402;9.990;2023-04-06T07:11:44;3.40;99.80
7016;DHT22;3548;48.402;9.990;2023-04-06T07:14:09;3.50;99.90
7016;DHT22;3548;48.402;9.990;2023-04-06T07:16:36;3.60;99.50
7016;DHT22;3548;48.402;9.990;2023-04-06T07:19:02;3.80;99.40
7016;DHT22;3548;48.402;9.990;2023-04-06T07:21:27;3.90;99.30
7016;DHT22;3548;48.402;9.990;2023-04-06T07:23:53;4.00;98.60
7016;DHT22;3548;48.402;9.990;2023-04-06T07:26:19;4.00;98.90
7016;DHT22;3548;48.402;9.990;2023-04-06T07:28:45;4.10;98.70
7016;DHT22;3548;48.402;9.990;2023-04-06T07:31:11;4.20;98.70
7016;DHT22;3548;48.402;9.990;2023-04-06T07:33:36;4.30;98.60
7016;DHT22;3548;48.402;9.990;2023-04-06T07:36:02;4.40;98.80
7016;DHT22;3548;48.402;9.990;2023-04-06T07:38:27;4.50;98.80
7016;DHT22;3548;48.402;9.990;2023-04-06T07:40:53;4.60;98.70
7016;DHT22;3548;48.402;9.990;2023-04-06T07:43:18;4.70;98.40
7016;DHT22;3548;48.402;9.990;2023-04-06T07:45:44;4.80;98.20
7016;DHT22;3548;48.402;9.990;2023-04-06T07:48:10;4.80;98.10
7016;DHT22;3548;48.402;9.990;2023-04-06T07:50:35;5.00;98.40
7016;DHT22;3548;48.402;9.990;2023-04-06T07:53:01;5.10;98.30
7016;DHT22;3548;48.402;9.990;2023-04-06T07:55:27;5.20;98.20
7016;DHT22;3548;48.402;9.990;2023-04-06T07:57:53;5.30;98.40
7016;DHT22;3548;48.402;9.990;2023-04-06T08:00:19;5.30;97.90
7016;DHT22;3548;48.402;9.990;2023-04-06T08:02:45;5.30;98.60
7016;DHT22;3548;48.402;9.990;2023-04-06T08:05:11;5.40;98.60
7016;DHT22;3548;48.402;9.990;2023-04-06T08:07:36;5.50;98.40
7016;DHT22;3548;48.402;9.990;2023-04-06T08:10:02;5.60;97.30
7016;DHT22;3548;48.402;9.990;2023-04-06T08:12:28;5.70;97.10
7016;DHT22;3548;48.402;9.990;2023-04-06T08:14:53;5.80;97.20
7016;DHT22;3548;48.402;9.990;2023-04-06T08:17:19;5.90;97.40
7016;DHT22;3548;48.402;9.990;2023-04-06T08:19:45;6.00;96.40
7016;DHT22;3548;48.402;9.990;2023-04-06T08:22:11;6.20;95.90
7016;DHT22;3548;48.402;9.990;2023-04-06T08:24:37;6.30;95.20
7016;DHT22;3548;48.402;9.990;2023-04-06T08:27:02;6.40;94.70
7016;DHT22;3548;48.402;9.990;2023-04-06T08:29:28;6.50;93.90
7016;DHT22;3548;48.402;9.990;2023-04-06T08:31:54;6.60;94.00
7016;DHT22;3548;48.402;9.990;2023-04-06T08:34:21;6.80;92.90
7016;DHT22;3548;48.402;9.990;2023-04-06T08:36:46;6.90;92.60
7016;DHT22;3548;48.402;9.990;2023-04-06T08:39:12;7.00;92.60
7016;DHT22;3548;48.402;9.990;2023-04-06T08:41:41;7.30;92.30
7016;DHT22;3548;48.402;9.990;2023-04-06T08:44:06;7.30;91.00
7016;DHT22;3548;48.402;9.990;2023-04-06T08:46:32;7.40;91.00
7016;DHT22;3548;48.402;9.990;2023-04-06T08:48:59;7.60;91.10
7016;DHT22;3548;48.402;9.990;2023-04-06T08:51:26;7.80;91.20
7016;DHT22;3548;48.402;9.990;2023-04-06T08:53:57;7.90;90.70
7016;DHT22;3548;48.402;9.990;2023-04-06T08:56:24;8.00;90.30
7016;DHT22;3548;48.402;9.990;2023-04-06T08:58:52;8.10;89.40
7016;DHT22;3548;48.402;9.990;2023-04-06T09:01:21;8.30;88.90
7016;DHT22;3548;48.402;9.990;2023-04-06T09:03:49;8.40;87.40
7016;DHT22;3548;48.402;9.990;2023-04-06T09:06:15;8.50;86.40
7016;DHT22;3548;48.402;9.990;2023-04-06T09:08:42;8.60;85.90
7016;DHT22;3548;48.402;9.990;2023-04-06T09:11:08;8.70;85.70
7016;DHT22;3548;48.402;9.990;2023-04-06T09:13:51;8.80;84.80
7016;DHT22;3548;48.402;9.990;2023-04-06T09:16:18;9.00;84.20
7016;DHT22;3548;48.402;9.990;2023-04-06T09:18:44;9.10;83.00
7016;DHT22;3548;48.402;9.990;2023-04-06T09:21:11;9.20;82.30
7016;DHT22;3548;48.402;9.990;2023-04-06T09:23:37;9.30;80.20
7016;DHT22;3548;48.402;9.990;2023-04-06T09:26:13;9.40;78.30
7016;DHT22;3548;48.402;9.990;2023-04-06T09:28:54;9.40;76.90
7016;DHT22;3548;48.402;9.990;2023-04-06T09:31:25;9.50;76.60
7016;DHT22;3548;48.402;9.990;2023-04-06T09:33:51;9.60;75.80
7016;DHT22;3548;48.402;9.990;2023-04-06T09:36:20;9.70;74.10
7016;DHT22;3548;48.402;9.990;2023-04-06T09:39:12;9.90;72.10
7016;DHT22;3548;48.402;9.990;2023-04-06T09:41:39;10.00;70.10
7016;DHT22;3548;48.402;9.990;2023-04-06T09:44:07;10.10;65.60
7016;DHT22;3548;48.402;9.990;2023-04-06T09:46:34;10.20;65.90
7016;DHT22;3548;48.402;9.990;2023-04-06T09:49:02;10.20;65.10
7016;DHT22;3548;48.402;9.990;2023-04-06T09:51:31;10.30;61.80
7016;DHT22;3548;48.402;9.990;2023-04-06T09:53:57;10.30;60.00
7016;DHT22;3548;48.402;9.990;2023-04-06T09:56:31;10.40;59.80
7016;DHT22;3548;48.402;9.990;2023-04-06T09:59:02;10.40;59.30
7016;DHT22;3548;48.402;9.990;2023-04-06T10:01:32;10.40;56.30
7016;DHT22;3548;48.402;9.990;2023-04-06T10:07:07;10.40;58.10
7016;DHT22;3548;48.402;9.990;2023-04-06T10:09:35;10.40;58.80
7016;DHT22;3548;48.402;9.990;2023-04-06T10:12:06;10.50;59.20
7016;DHT22;3548;48.402;9.990;2023-04-06T10:14:35;10.70;57.50
7016;DHT22;3548;48.402;9.990;2023-04-06T10:17:03;10.50;51.40
7016;DHT22;3548;48.402;9.990;2023-04-06T10:19:45;10.50;53.00
7016;DHT22;3548;48.402;9.990;2023-04-06T10:22:18;10.60;54.20
7016;DHT22;3548;48.402;9.990;2023-04-06T10:24:48;10.70;54.60
7016;DHT22;3548;48.402;9.990;2023-04-06T10:27:13;10.90;53.10
7016;DHT22;3548;48.402;9.990;2023-04-06T10:29:48;10.90;53.30
7016;DHT22;3548;48.402;9.990;2023-04-06T10:32:15;10.90;52.70
7016;DHT22;3548;48.402;9.990;2023-04-06T10:34:41;10.90;52.40
7016;DHT22;3548;48.402;9.990;2023-04-06T10:37:16;10.90;52.20
7016;DHT22;3548;48.402;9.990;2023-04-06T10:40:02;10.70;51.10
7016;DHT22;3548;48.402;9.990;2023-04-06T10:42:37;10.50;52.00
7016;DHT22;3548;48.402;9.990;2023-04-06T10:45:07;10.60;52.80
7016;DHT22;3548;48.402;9.990;2023-04-06T10:47:43;10.80;51.70
7016;DHT22;3548;48.402;9.990;2023-04-06T10:50:11;11.00;50.80
7016;DHT22;3548;48.402;9.990;2023-04-06T10:52:40;11.10;49.30
7016;DHT22;3548;48.402;9.990;2023-04-06T10:55:07;11.00;48.70
7016;DHT22;3548;48.402;9.990;2023-04-06T10:57:34;11.10;49.10
7016;DHT22;3548;48.402;9.990;2023-04-06T11:00:00;11.30;49.60
7016;DHT22;3548;48.402;9.990;2023-04-06T11:02:26;11.40;49.20
7016;DHT22;3548;48.402;9.990;2023-04-06T11:04:58;11.50;48.60
7016;DHT22;3548;48.402;9.990;2023-04-06T11:07:27;11.60;49.20
7016;DHT22;3548;48.402;9.990;2023-04-06T11:09:54;11.60;49.10
7016;DHT22;3548;48.402;9.990;2023-04-06T11:12:24;11.70;48.60
7016;DHT22;3548;48.402;9.990;2023-04-06T11:14:58;11.60;46.70
7016;DHT22;3548;48.402;9.990;2023-04-06T11:17:35;11.60;46.00
7016;DHT22;3548;48.402;9.990;2023-04-06T11:20:03;11.50;45.60
7016;DHT22;3548;48.402;9.990;2023-04-06T11:22:29;11.50;45.00
7016;DHT22;3548;48.402;9.990;2023-04-06T11:25:07;11.40;45.30
7016;DHT22;3548;48.402;9.990;2023-04-06T11:27:36;11.40;44.80
7016;DHT22;3548;48.402;9.990;2023-04-06T11:30:04;11.20;44.80
7016;DHT22;3548;48.402;9.990;2023-04-06T11:32:39;11.20;44.90
7016;DHT22;3548;48.402;9.990;2023-04-06T11:35:06;11.30;45.50
7016;DHT22;3548;48.402;9.990;2023-04-06T11:37:32;11.30;45.30
7016;DHT22;3548;48.402;9.990;2023-04-06T11:39:58;11.50;45.70
7016;DHT22;3548;48.402;9.990;2023-04-06T11:42:28;11.60;45.90
7016;DHT22;3548;48.402;9.990;2023-04-06T11:44:56;11.70;46.10
7016;DHT22;3548;48.402;9.990;2023-04-06T11:47:29;11.70;45.60
7016;DHT22;3548;48.402;9.990;2023-04-06T11:49:56;11.70;44.60
7016;DHT22;3548;48.402;9.990;2023-04-06T11:52:30;11.40;44.90
7016;DHT22;3548;48.402;9.990;2023-04-06T11:54:56;11.20;46.00
7016;DHT22;3548;48.402;9.990;2023-04-06T11:57:23;11.30;47.00
7016;DHT22;3548;48.402;9.990;2023-04-06T11:59:53;11.30;46.60
7016;DHT22;3548;48.402;9.990;2023-04-06T12:02:19;11.40;46.60
7016;DHT22;3548;48.402;9.990;2023-04-06T12:04:45;11.60;47.40
7016;DHT22;3548;48.402;9.990;2023-04-06T12:07:11;11.70;47.00
7016;DHT22;3548;48.402;9.990;2023-04-06T12:09:36;11.80;47.20
7016;DHT22;3548;48.402;9.990;2023-04-06T12:12:03;11.90;47.50
7016;DHT22;3548;48.402;9.990;2023-04-06T12:14:29;12.10;48.00
7016;DHT22;3548;48.402;9.990;2023-04-06T12:16:56;12.20;47.60
7016;DHT22;3548;48.402;9.990;2023-04-06T12:19:23;12.40;47.80
7016;DHT22;3548;48.402;9.990;2023-04-06T12:21:52;12.40;46.60
7016;DHT22;3548;48.402;9.990;2023-04-06T12:24:18;12.50;45.70
7016;DHT22;3548;48.402;9.990;2023-04-06T12:26:44;12.40;45.90
7016;DHT22;3548;48.402;9.990;2023-04-06T12:29:10;12.40;45.70
7016;DHT22;3548;48.402;9.990;2023-04-06T12:31:37;12.40;46.40
7016;DHT22;3548;48.402;9.990;2023-04-06T12:34:08;12.40;46.50
7016;DHT22;3548;48.402;9.990;2023-04-06T12:36:34;12.50;45.50
7016;DHT22;3548;48.402;9.990;2023-04-06T12:39:00;12.60;45.90
7016;DHT22;3548;48.402;9.990;2023-04-06T12:41:29;12.80;46.00
7016;DHT22;3548;48.402;9.990;2023-04-06T12:43:55;13.00;46.30
7016;DHT22;3548;48.402;9.990;2023-04-06T12:46:21;13.30;46.20
7016;DHT22;3548;48.402;9.990;2023-04-06T12:48:47;13.50;44.00
7016;DHT22;3548;48.402;9.990;2023-04-06T12:51:13;13.60;44.30
7016;DHT22;3548;48.402;9.990;2023-04-06T12:53:39;13.70;44.00
7016;DHT22;3548;48.402;9.990;2023-04-06T12:56:18;13.70;43.40
7016;DHT22;3548;48.402;9.990;2023-04-06T12:58:44;13.80;43.10
7016;DHT22;3548;48.402;9.990;2023-04-06T13:01:11;13.80;43.40
7016;DHT22;3548;48.402;9.990;2023-04-06T13:03:43;13.70;43.40
7016;DHT22;3548;48.402;9.990;2023-04-06T13:06:09;13.60;43.40
7016;DHT22;3548;48.402;9.990;2023-04-06T13:08:36;13.60;43.40
7016;DHT22;3548;48.402;9.990;2023-04-06T13:11:02;13.60;43.40
7016;DHT22;3548;48.402;9.990;2023-04-06T13:13:29;13.60;42.80
7016;DHT22;3548;48.402;9.990;2023-04-06T13:16:00;13.60;42.90
7016;DHT22;3548;48.402;9.990;2023-04-06T13:18:28;13.70;42.00
7016;DHT22;3548;48.402;9.990;2023-04-06T13:20:54;13.70;41.80
7016;DHT22;3548;48.402;9.990;2023-04-06T13:23:21;13.60;41.70
7016;DHT22;3548;48.402;9.990;2023-04-06T13:25:47;13.40;41.30
7016;DHT22;3548;48.402;9.990;2023-04-06T13:28:12;13.30;42.00
7016;DHT22;3548;48.402;9.990;2023-04-06T13:30:39;13.30;41.70
7016;DHT22;3548;48.402;9.990;2023-04-06T13:33:04;13.30;41.40
7016;DHT22;3548;48.402;9.990;2023-04-06T13:35:32;13.30;41.60
7016;DHT22;3548;48.402;9.990;2023-04-06T13:37:58;13.30;41.60
7016;DHT22;3548;48.402;9.990;2023-04-06T13:40:24;13.30;42.00
7016;DHT22;3548;48.402;9.990;2023-04-06T13:42:50;13.30;42.10
7016;DHT22;3548;48.402;9.990;2023-04-06T13:45:16;13.30;41.70
7016;DHT22;3548;48.402;9.990;2023-04-06T13:47:42;13.20;41.40
7016;DHT22;3548;48.402;9.990;2023-04-06T13:50:08;13.20;41.60
7016;DHT22;3548;48.402;9.990;2023-04-06T13:52:35;13.10;41.30
7016;DHT22;3548;48.402;9.990;2023-04-06T13:55:01;13.10;42.10
7016;DHT22;3548;48.402;9.990;2023-04-06T13:57:27;13.20;42.30
7016;DHT22;3548;48.402;9.990;2023-04-06T13:59:55;13.30;42.00
7016;DHT22;3548;48.402;9.990;2023-04-06T14:02:20;13.30;41.50
7016;DHT22;3548;48.402;9.990;2023-04-06T14:04:51;13.40;41.70
7016;DHT22;3548;48.402;9.990;2023-04-06T14:07:17;13.40;41.70
7016;DHT22;3548;48.402;9.990;2023-04-06T14:09:43;13.40;41.90
7016;DHT22;3548;48.402;9.990;2023-04-06T14:12:08;13.50;42.10
7016;DHT22;3548;48.402;9.990;2023-04-06T14:14:34;13.60;42.10
7016;DHT22;3548;48.402;9.990;2023-04-06T14:16:59;13.70;41.00
7016;DHT22;3548;48.402;9.990;2023-04-06T14:19:25;13.60;41.60
7016;DHT22;3548;48.402;9.990;2023-04-06T14:21:51;13.60;41.60
7016;DHT22;3548;48.402;9.990;2023-04-06T14:24:17;13.60;41.30
7016;DHT22;3548;48.402;9.990;2023-04-06T14:26:43;13.50;40.50
7016;DHT22;3548;48.402;9.990;2023-04-06T14:29:09;13.20;40.10
7016;DHT22;3548;48.402;9.990;2023-04-06T14:31:35;13.00;40.60
7016;DHT22;3548;48.402;9.990;2023-04-06T14:34:02;12.80;40.80
7016;DHT22;3548;48.402;9.990;2023-04-06T14:36:30;12.60;40.90
7016;DHT22;3548;48.402;9.990;2023-04-06T14:39:02;12.50;41.40
7016;DHT22;3548;48.402;9.990;2023-04-06T14:41:30;12.60;41.60
7016;DHT22;3548;48.402;9.990;2023-04-06T14:43:56;12.80;42.10
7016;DHT22;3548;48.402;9.990;2023-04-06T14:46:22;13.00;42.40
7016;DHT22;3548;48.402;9.990;2023-04-06T14:48:48;13.10;42.30
7016;DHT22;3548;48.402;9.990;2023-04-06T14:51:15;13.20;41.50
7016;DHT22;3548;48.402;9.990;2023-04-06T14:53:40;13.30;41.60
7016;DHT22;3548;48.402;9.990;2023-04-06T14:56:06;13.40;41.50
7016;DHT22;3548;48.402;9.990;2023-04-06T14:58:32;13.50;41.80
7016;DHT22;3548;48.402;9.990;2023-04-06T15:00:59;13.60;41.70
7016;DHT22;3548;48.402;9.990;2023-04-06T15:03:26;13.70;41.50
7016;DHT22;3548;48.402;9.990;2023-04-06T15:05:52;13.60;41.60
7016;DHT22;3548;48.402;9.990;2023-04-06T15:08:18;13.60;41.20
7016;DHT22;3548;48.402;9.990;2023-04-06T15:10:48;13.50;41.10
7016;DHT22;3548;48.402;9.990;2023-04-06T15:13:14;13.50;41.60
7016;DHT22;3548;48.402;9.990;2023-04-06T15:15:44;13.50;41.50
7016;DHT22;3548;48.402;9.990;2023-04-06T15:18:10;13.50;41.60
7016;DHT22;3548;48.402;9.990;2023-04-06T15:20:36;13.40;41.30
7016;DHT22;3548;48.402;9.990;2023-04-06T15:23:02;13.30;41.40
7016;DHT22;3548;48.402;9.990;2023-04-06T15:25:29;13.20;42.00
7016;DHT22;3548;48.402;9.990;2023-04-06T15:27:56;13.20;41.90
7016;DHT22;3548;48.402;9.990;2023-04-06T15:30:22;13.10;41.70
7016;DHT22;3548;48.402;9.990;2023-04-06T15:33:00;13.10;42.10
7016;DHT22;3548;48.402;9.990;2023-04-06T15:35:27;13.00;41.70
7016;DHT22;3548;48.402;9.990;2023-04-06T15:37:56;13.00;41.80
7016;DHT22;3548;48.402;9.990;2023-04-06T15:40:22;12.90;41.70
7016;DHT22;3548;48.402;9.990;2023-04-06T15:42:48;12.80;41.40
7016;DHT22;3548;48.402;9.990;2023-04-06T15:45:14;12.80;42.00
7016;DHT22;3548;48.402;9.990;2023-04-06T15:47:44;12.70;42.00
7016;DHT22;3548;48.402;9.990;2023-04-06T15:50:11;12.70;42.30
7016;DHT22;3548;48.402;9.990;2023-04-06T15:52:38;12.60;42.20
7016;DHT22;3548;48.402;9.990;2023-04-06T15:55:06;12.60;42.40
7016;DHT22;3548;48.402;9.990;2023-04-06T15:57:32;12.50;42.40
7016;DHT22;3548;48.402;9.990;2023-04-06T15:59:58;12.50;43.40
7016;DHT22;3548;48.402;9.990;2023-04-06T16:02:24;12.40;43.30
7016;DHT22;3548;48.402;9.990;2023-04-06T16:04:58;12.40;43.20
7016;DHT22;3548;48.402;9.990;2023-04-06T16:07:27;12.40;43.30